createdAt,value
2023-07-05T00:00:06.659Z,100057.31
2023-07-05T00:01:06.436Z,100046.09
2023-07-05T00:01:46.464Z,100056.66
2023-07-05T00:02:26.470Z,100053.28
2023-07-05T00:03:06.754Z,100054.56
2023-07-05T00:03:47.413Z,100046.09
2023-07-05T00:04:27.488Z,100050.31
2023-07-05T00:05:07.427Z,100051.16
2023-07-05T00:05:47.475Z,100053.50
2023-07-05T00:06:27.397Z,100051.16
2023-07-05T00:07:07.693Z,100058.53
2023-07-05T00:07:50.283Z,100048.81
2023-07-05T00:08:30.536Z,100053.03
2023-07-05T00:09:11.391Z,100048.78
2023-07-05T00:09:51.491Z,100049.84
2023-07-05T00:10:32.598Z,100055.53
2023-07-05T00:11:15.493Z,100054.03
2023-07-05T00:11:56.432Z,100060.44
2023-07-05T00:12:36.497Z,100049.16
2023-07-05T00:13:16.514Z,100056.97
2023-07-05T00:13:56.531Z,100052.75
2023-07-05T00:14:39.543Z,100048.94
2023-07-05T00:15:22.486Z,100051.94
2023-07-05T00:16:03.476Z,100052.78
2023-07-05T00:16:43.617Z,100059.13
2023-07-05T00:17:23.491Z,100057.44
2023-07-05T00:18:05.090Z,100060.44
2023-07-05T00:18:46.377Z,100050.25
2023-07-05T00:19:26.461Z,100047.53
2023-07-05T00:20:07.389Z,100027.13
2023-07-05T00:20:47.569Z,100045.63
2023-07-05T00:21:27.361Z,100057.88
2023-07-05T00:22:07.459Z,100046.03
2023-07-05T00:22:48.392Z,100055.78
2023-07-05T00:23:28.610Z,100046.03
2023-07-05T00:24:09.375Z,100049.44
2023-07-05T00:24:49.501Z,100046.47
2023-07-05T00:25:29.402Z,100049.84
2023-07-05T00:26:11.435Z,100056.63
2023-07-05T00:26:51.381Z,100050.06
2023-07-05T00:27:32.536Z,100049.84
2023-07-05T00:28:12.360Z,100041.81
2023-07-05T00:28:53.431Z,100044.78
2023-07-05T00:29:34.378Z,100051.75
2023-07-05T00:30:17.568Z,100050.69
2023-07-05T00:30:59.406Z,100042.22
2023-07-05T00:31:39.805Z,100022.31
2023-07-05T00:32:21.451Z,100036.25
2023-07-05T00:33:01.521Z,100044.91
2023-07-05T00:33:42.351Z,100035.22
2023-07-05T00:34:22.460Z,100047.53
2023-07-05T00:35:02.397Z,100042.88
2023-07-05T00:35:42.479Z,100043.22
2023-07-05T00:36:23.358Z,100042.38
2023-07-05T00:37:03.484Z,100042.16
2023-07-05T00:37:43.380Z,100045.97
2023-07-05T00:38:24.447Z,100050.16
2023-07-05T00:39:04.412Z,100052.91
2023-07-05T00:39:44.433Z,100047.59
2023-07-05T00:40:26.371Z,100042.53
2023-07-05T00:41:06.617Z,100039.16
2023-07-05T00:41:46.354Z,100036.41
2023-07-05T00:42:26.551Z,100034.72
2023-07-05T00:43:07.397Z,100040.44
2023-07-05T00:43:55.618Z,100028.31
2023-07-05T00:44:36.506Z,100040.38
2023-07-05T00:45:19.474Z,100032.38
2023-07-05T00:46:06.386Z,100021.16
2023-07-05T00:46:51.422Z,100032.16
2023-07-05T00:47:36.388Z,100006.56
2023-07-05T00:48:21.521Z,100015.25
2023-07-05T00:49:23.386Z,100026.47
2023-07-05T00:50:10.368Z,100033.66
2023-07-05T00:50:49.497Z,100023.91
2023-07-05T00:51:48.391Z,100028.56
2023-07-05T00:52:24.499Z,100031.50
2023-07-05T00:53:12.356Z,100027.28
2023-07-05T00:53:49.136Z,100039.97
2023-07-05T00:54:48.354Z,100032.78
2023-07-05T00:55:30.399Z,100029.81
2023-07-05T00:56:46.379Z,100009.91
2023-07-05T00:57:44.409Z,100035.09
2023-07-05T00:58:38.374Z,100027.28
2023-07-05T00:59:34.378Z,100031.91
2023-07-05T01:00:33.371Z,100030.41
2023-07-05T01:01:27.424Z,100033.16
2023-07-05T01:02:21.377Z,100032.94
2023-07-05T01:03:19.380Z,100034.47
2023-07-05T01:04:14.349Z,100031.47
2023-07-05T01:05:09.441Z,100036.13
2023-07-05T01:06:00.349Z,100040.25
2023-07-05T01:06:34.500Z,100040.66
2023-07-05T01:07:21.416Z,100038.94
2023-07-05T01:07:55.472Z,100035.09
2023-07-05T01:08:43.347Z,100034.59
2023-07-05T01:09:17.448Z,100043.44
2023-07-05T01:10:04.422Z,100038.75
2023-07-05T01:10:38.479Z,100042.59
2023-07-05T01:11:33.387Z,100029.50
2023-07-05T01:12:46.656Z,100046.38
2023-07-05T01:13:53.390Z,100041.97
2023-07-05T01:15:07.675Z,100037.06
2023-07-05T01:16:12.390Z,100040.06
2023-07-05T01:17:15.425Z,100041.38
2023-07-05T01:18:34.415Z,100042.59
2023-07-05T01:20:12.516Z,100035.00
2023-07-05T01:21:20.343Z,100043.63
2023-07-05T01:22:23.415Z,100026.91
2023-07-05T01:24:09.360Z,100042.56
2023-07-05T01:25:09.393Z,100039.19
2023-07-05T01:26:41.361Z,100032.19
2023-07-05T01:27:57.380Z,100043.03
2023-07-05T01:29:00.299Z,100043.44
2023-07-05T01:30:09.377Z,100044.97
2023-07-05T01:31:18.366Z,100039.00
2023-07-05T01:32:43.434Z,100029.28
2023-07-05T01:33:55.364Z,100039.75
2023-07-05T01:35:07.453Z,100038.06
2023-07-05T01:35:56.618Z,100035.06
2023-07-05T01:36:38.581Z,100040.34
2023-07-05T01:37:52.333Z,100040.38
2023-07-05T01:38:46.329Z,100039.16
2023-07-05T01:39:26.316Z,100033.84
2023-07-05T01:40:08.456Z,100036.84
2023-07-05T01:41:08.356Z,100033.25
2023-07-05T01:41:48.446Z,100042.06
2023-07-05T01:42:38.303Z,100029.56
2023-07-05T01:43:20.475Z,100044.34
2023-07-05T01:44:01.326Z,100041.59
2023-07-05T01:44:41.368Z,100034.81
2023-07-05T01:45:16.376Z,100037.56
2023-07-05T01:46:35.324Z,100038.13
2023-07-05T01:47:20.447Z,100028.34
2023-07-05T01:48:21.293Z,100037.19
2023-07-05T01:49:48.340Z,100029.81
2023-07-05T01:50:49.368Z,100023.81
2023-07-05T01:51:57.356Z,100038.00
2023-07-05T01:53:32.307Z,100030.97
2023-07-05T01:54:57.350Z,100040.31
2023-07-05T01:56:11.397Z,100031.84
2023-07-05T01:57:30.308Z,100033.97
2023-07-05T01:58:33.331Z,100022.97
2023-07-05T01:59:27.493Z,100029.88
2023-07-05T02:00:19.389Z,100017.81
2023-07-05T02:00:55.417Z,100026.22
2023-07-05T02:01:43.291Z,100023.81
2023-07-05T02:02:18.535Z,100001.31
2023-07-05T02:03:10.514Z,100024.66
2023-07-05T02:03:48.130Z,99999.50
2023-07-05T02:04:36.295Z,100019.16
2023-07-05T02:05:11.393Z,100024.66
2023-07-05T02:05:53.462Z,100014.75
2023-07-05T02:06:34.421Z,100014.31
2023-07-05T02:07:15.342Z,100032.38
2023-07-05T02:07:55.390Z,100032.81
2023-07-05T02:08:37.306Z,100032.88
2023-07-05T02:09:17.376Z,100017.06
2023-07-05T02:09:57.307Z,100026.38
2023-07-05T02:10:39.473Z,100032.97
2023-07-05T02:11:19.283Z,100022.97
2023-07-05T02:11:59.359Z,100033.81
2023-07-05T02:12:39.330Z,100034.47
2023-07-05T02:13:20.107Z,100024.28
2023-07-05T02:14:00.401Z,100029.97
2023-07-05T02:14:41.413Z,100038.19
2023-07-05T02:15:22.368Z,100028.31
2023-07-05T02:16:02.492Z,100037.59
2023-07-05T02:16:42.336Z,100032.13
2023-07-05T02:17:23.483Z,100034.44
2023-07-05T02:18:03.404Z,100029.56
2023-07-05T02:18:44.454Z,100031.06
2023-07-05T02:19:25.365Z,100021.94
2023-07-05T02:20:05.577Z,100024.84
2023-07-05T02:20:46.293Z,100029.47
2023-07-05T02:21:26.431Z,100030.16
2023-07-05T02:22:07.370Z,100023.63
2023-07-05T02:22:48.428Z,100022.13
2023-07-05T02:23:30.280Z,100040.06
2023-07-05T02:24:11.387Z,100031.84
2023-07-05T02:24:51.357Z,100029.56
2023-07-05T02:25:31.370Z,100028.69
2023-07-05T02:26:13.339Z,100031.66
2023-07-05T02:26:54.385Z,100031.28
2023-07-05T02:27:36.418Z,100032.13
2023-07-05T02:28:17.391Z,100033.81
2023-07-05T02:28:57.279Z,100035.97
2023-07-05T02:29:37.425Z,100035.75
2023-07-05T02:30:20.275Z,100027.91
2023-07-05T02:31:01.392Z,100028.31
2023-07-05T02:31:42.268Z,100036.97
2023-07-05T02:32:22.692Z,100031.06
2023-07-05T02:33:02.325Z,100030.34
2023-07-05T02:33:44.797Z,100026.09
2023-07-05T02:34:27.277Z,100024.78
2023-07-05T02:35:09.707Z,100031.97
2023-07-05T02:35:50.298Z,100024.00
2023-07-05T02:36:30.408Z,100028.69
2023-07-05T02:37:11.293Z,100037.59
2023-07-05T02:37:51.433Z,100024.41
2023-07-05T02:38:31.293Z,100029.75
2023-07-05T02:39:12.412Z,100030.81
2023-07-05T02:39:53.263Z,100024.94
2023-07-05T02:40:33.969Z,100023.91
2023-07-05T02:41:16.311Z,100029.22
2023-07-05T02:41:56.394Z,100021.41
2023-07-05T02:42:36.285Z,100029.63
2023-07-05T02:43:17.361Z,100029.22
2023-07-05T02:43:59.271Z,100025.78
2023-07-05T02:44:41.679Z,100025.59
2023-07-05T02:45:22.288Z,100038.72
2023-07-05T02:46:02.519Z,100026.69
2023-07-05T02:46:43.321Z,100035.34
2023-07-05T02:47:25.477Z,100028.97
2023-07-05T02:48:05.300Z,100025.84
2023-07-05T02:48:46.327Z,100027.13
2023-07-05T02:49:27.275Z,100026.22
2023-07-05T02:50:08.197Z,100025.13
2023-07-05T02:50:48.236Z,100033.41
2023-07-05T02:51:28.475Z,100015.22
2023-07-05T02:52:08.313Z,100029.97
2023-07-05T02:52:49.411Z,100020.69
2023-07-05T02:53:29.275Z,100023.69
2023-07-05T02:54:09.386Z,100028.97
2023-07-05T02:54:50.313Z,100020.75
2023-07-05T02:55:31.359Z,100021.16
2023-07-05T02:56:12.270Z,100024.53
2023-07-05T02:56:52.486Z,100020.91
2023-07-05T02:57:32.253Z,100028.44
2023-07-05T02:58:12.428Z,100017.31
2023-07-05T02:58:53.326Z,100017.69
2023-07-05T02:59:34.515Z,100018.03
2023-07-05T03:00:15.307Z,100020.00
2023-07-05T03:00:55.464Z,100013.91
2023-07-05T03:01:35.370Z,100023.22
2023-07-05T03:02:15.586Z,100025.63
2023-07-05T03:02:55.314Z,100021.09
2023-07-05T03:03:36.338Z,100027.53
2023-07-05T03:04:16.262Z,100023.94
2023-07-05T03:04:56.344Z,100020.00
2023-07-05T03:05:36.293Z,100018.53
2023-07-05T03:06:16.435Z,100026.31
2023-07-05T03:06:56.296Z,100030.00
2023-07-05T03:07:37.458Z,100023.94
2023-07-05T03:08:18.229Z,100023.09
2023-07-05T03:08:58.315Z,100019.50
2023-07-05T03:09:38.207Z,100015.94
2023-07-05T03:10:18.306Z,100023.50
2023-07-05T03:11:01.229Z,100023.88
2023-07-05T03:11:42.344Z,100019.19
2023-07-05T03:12:23.334Z,100021.34
2023-07-05T03:13:03.379Z,100024.09
2023-07-05T03:13:44.262Z,100024.66
2023-07-05T03:14:24.352Z,100025.03
2023-07-05T03:15:06.247Z,100022.44
2023-07-05T03:15:46.326Z,100007.25
2023-07-05T03:16:26.269Z,100017.28
2023-07-05T03:17:06.351Z,100010.97
2023-07-05T03:17:47.323Z,100024.53
2023-07-05T03:18:27.359Z,100015.81
2023-07-05T03:19:07.222Z,100023.25
2023-07-05T03:19:47.325Z,100025.97
2023-07-05T03:20:27.263Z,100023.41
2023-07-05T03:21:07.418Z,100008.44
2023-07-05T03:21:48.262Z,100021.34
2023-07-05T03:22:28.434Z,100023.88
2023-07-05T03:23:08.410Z,100030.13
2023-07-05T03:23:49.427Z,100030.78
2023-07-05T03:24:29.277Z,100021.34
2023-07-05T03:25:09.413Z,100020.50
2023-07-05T03:26:04.233Z,100018.03
2023-07-05T03:26:44.379Z,100025.56
2023-07-05T03:27:25.262Z,100022.91
2023-07-05T03:28:19.238Z,100021.28
2023-07-05T03:29:13.269Z,100029.22
2023-07-05T03:30:07.233Z,100031.75
2023-07-05T03:31:13.278Z,100028.41
2023-07-05T03:32:07.253Z,100023.69
2023-07-05T03:32:51.288Z,100022.28
2023-07-05T03:33:32.334Z,100001.91
2023-07-05T03:34:12.226Z,100030.78
2023-07-05T03:34:52.670Z,99998.28
2023-07-05T03:35:32.266Z,100028.94
2023-07-05T03:36:18.434Z,100021.94
2023-07-05T03:36:58.339Z,100010.63
2023-07-05T03:37:38.381Z,100019.97
2023-07-05T03:38:18.278Z,100026.75
2023-07-05T03:38:59.329Z,100021.09
2023-07-05T03:39:39.234Z,100019.88
2023-07-05T03:40:20.363Z,100026.66
2023-07-05T03:41:13.236Z,100014.06
2023-07-05T03:41:53.472Z,100023.34
2023-07-05T03:42:33.236Z,100028.44
2023-07-05T03:43:13.333Z,100007.38
2023-07-05T03:43:56.244Z,100014.63
2023-07-05T03:44:37.398Z,100016.97
2023-07-05T03:45:18.277Z,100021.78
2023-07-05T03:46:00.918Z,100005.41
2023-07-05T03:46:42.295Z,100025.31
2023-07-05T03:47:22.343Z,100014.19
2023-07-05T03:48:03.262Z,100013.16
2023-07-05T03:48:48.260Z,100000.91
2023-07-05T03:49:28.348Z,100009.66
2023-07-05T03:50:08.423Z,100017.00
2023-07-05T03:50:48.319Z,100009.91
2023-07-05T03:51:30.339Z,100006.28
2023-07-05T03:52:11.257Z,100003.13
2023-07-05T03:52:51.267Z,99999.88
2023-07-05T03:53:32.218Z,99996.50
2023-07-05T03:54:12.305Z,99999.50
2023-07-05T03:54:52.250Z,100007.13
2023-07-05T03:55:32.408Z,99999.09
2023-07-05T03:56:17.216Z,99993.59
2023-07-05T03:56:57.348Z,100004.00
2023-07-05T03:57:38.231Z,99998.97
2023-07-05T03:58:18.314Z,99999.81
2023-07-05T03:58:59.289Z,100003.88
2023-07-05T03:59:40.618Z,99996.88
2023-07-05T04:00:24.223Z,99999.25
2023-07-05T04:01:19.216Z,100007.53
2023-07-05T04:01:59.251Z,99990.59
2023-07-05T04:02:39.357Z,100001.84
2023-07-05T04:03:22.223Z,99992.91
2023-07-05T04:04:08.402Z,100004.00
2023-07-05T04:04:50.258Z,100006.16
2023-07-05T04:05:40.281Z,100004.03
2023-07-05T04:06:35.240Z,100003.16
2023-07-05T04:07:29.223Z,100004.84
2023-07-05T04:08:23.191Z,100010.09
2023-07-05T04:09:17.218Z,99999.09
2023-07-05T04:10:11.208Z,100004.56
2023-07-05T04:10:58.279Z,100007.19
2023-07-05T04:11:32.537Z,100015.41
2023-07-05T04:12:19.218Z,100009.53
2023-07-05T04:12:53.340Z,100010.78
2023-07-05T04:13:40.234Z,100007.06
2023-07-05T04:14:14.293Z,100015.56
2023-07-05T04:15:01.273Z,100015.47
2023-07-05T04:15:35.258Z,100020.78
2023-07-05T04:16:26.367Z,100009.22
2023-07-05T04:17:00.320Z,100017.19
2023-07-05T04:17:47.276Z,100006.16
2023-07-05T04:18:21.515Z,100007.13
2023-07-05T04:19:08.195Z,100001.19
2023-07-05T04:19:42.273Z,100006.66
2023-07-05T04:20:29.171Z,100005.63
2023-07-05T04:21:04.251Z,100015.41
2023-07-05T04:21:51.234Z,100010.97
2023-07-05T04:22:25.264Z,100008.03
2023-07-05T04:23:12.213Z,100009.53
2023-07-05T04:23:48.295Z,100010.84
2023-07-05T04:24:36.241Z,100013.38
2023-07-05T04:25:10.300Z,100008.94
2023-07-05T04:25:57.193Z,100014.47
2023-07-05T04:26:33.267Z,100001.59
2023-07-05T04:27:13.215Z,100005.41
2023-07-05T04:28:07.311Z,100002.25
2023-07-05T04:29:01.261Z,100010.25
2023-07-05T04:29:55.219Z,99984.66
2023-07-05T04:30:52.021Z,100006.41
2023-07-05T04:31:46.211Z,99985.53
2023-07-05T04:32:34.243Z,99988.28
2023-07-05T04:33:08.275Z,99982.75
2023-07-05T04:33:55.161Z,99990.59
2023-07-05T04:34:29.240Z,100008.78
2023-07-05T04:35:16.173Z,100004.34
2023-07-05T04:35:55.260Z,100000.34
2023-07-05T04:36:42.268Z,99999.28
2023-07-05T04:37:25.737Z,100006.66
2023-07-05T04:38:11.222Z,99984.06
2023-07-05T04:38:51.261Z,99984.06
2023-07-05T04:39:31.130Z,100004.56
2023-07-05T04:40:12.246Z,99993.13
2023-07-05T04:40:52.373Z,99987.84
2023-07-05T04:41:34.256Z,100003.94
2023-07-05T04:42:15.147Z,99982.78
2023-07-05T04:42:55.257Z,99989.38
2023-07-05T04:43:36.173Z,99985.16
2023-07-05T04:44:16.226Z,99992.22
2023-07-05T04:44:56.139Z,100000.66
2023-07-05T04:45:36.281Z,99995.59
2023-07-05T04:46:19.566Z,100000.28
2023-07-05T04:47:00.240Z,100006.66
2023-07-05T04:47:40.157Z,100009.22
2023-07-05T04:48:20.241Z,99992.91
2023-07-05T04:49:03.211Z,99990.63
2023-07-05T04:49:43.223Z,99998.66
2023-07-05T04:50:24.144Z,99986.41
2023-07-05T04:51:06.944Z,99993.19
2023-07-05T04:51:47.140Z,99975.41
2023-07-05T04:52:27.252Z,99987.94
2023-07-05T04:53:07.123Z,99976.72
2023-07-05T04:53:47.497Z,99999.78
2023-07-05T04:54:28.139Z,99989.47
2023-07-05T04:55:08.268Z,100000.44
2023-07-05T04:55:53.173Z,99997.47
2023-07-05T04:56:33.257Z,99978.03
2023-07-05T04:57:27.614Z,99994.19
2023-07-05T04:58:12.299Z,99984.38
2023-07-05T04:58:55.133Z,99998.38
2023-07-05T04:59:43.139Z,99995.88
2023-07-05T05:00:37.109Z,99989.31
2023-07-05T05:01:33.285Z,100000.31
2023-07-05T05:02:27.250Z,99997.78
2023-07-05T05:03:21.244Z,99995.91
2023-07-05T05:04:15.177Z,99994.69
2023-07-05T05:05:02.334Z,99988.16
2023-07-05T05:05:36.226Z,99975.66
2023-07-05T05:06:23.128Z,99972.28
2023-07-05T05:06:58.191Z,99981.56
2023-07-05T05:07:45.115Z,99990.44
2023-07-05T05:08:20.336Z,99982.84
2023-07-05T05:09:07.126Z,99972.28
2023-07-05T05:09:41.893Z,99975.66
2023-07-05T05:10:22.175Z,99984.78
2023-07-05T05:11:06.242Z,99976.53
2023-07-05T05:11:46.114Z,99973.13
2023-07-05T05:12:26.193Z,99981.59
2023-07-05T05:13:06.115Z,99968.94
2023-07-05T05:13:46.291Z,99983.75
2023-07-05T05:14:27.130Z,99967.84
2023-07-05T05:15:07.352Z,99978.25
2023-07-05T05:15:48.160Z,99977.22
2023-07-05T05:16:28.337Z,99981.63
2023-07-05T05:17:08.226Z,99978.25
2023-07-05T05:17:48.286Z,99982.06
2023-07-05T05:18:32.204Z,99979.13
2023-07-05T05:19:14.998Z,99981.47
2023-07-05T05:19:55.133Z,99972.38
2023-07-05T05:20:37.791Z,99982.94
2023-07-05T05:21:19.157Z,99978.28
2023-07-05T05:21:59.259Z,99959.25
2023-07-05T05:22:40.179Z,99955.91
2023-07-05T05:23:20.265Z,99955.47
2023-07-05T05:24:00.132Z,99973.63
2023-07-05T05:24:42.853Z,99972.81
2023-07-05T05:25:24.229Z,99975.78
2023-07-05T05:26:05.307Z,99975.78
2023-07-05T05:26:46.147Z,99977.25
2023-07-05T05:27:26.230Z,99967.13
2023-07-05T05:28:07.140Z,99972.41
2023-07-05T05:28:47.292Z,99970.09
2023-07-05T05:29:27.156Z,99973.06
2023-07-05T05:30:07.247Z,99966.56
2023-07-05T05:30:51.243Z,99972.91
2023-07-05T05:31:31.677Z,99951.75
2023-07-05T05:32:13.152Z,99965.31
2023-07-05T05:32:54.278Z,99968.91
2023-07-05T05:33:34.182Z,99959.81
2023-07-05T05:34:18.369Z,99963.81
2023-07-05T05:34:58.127Z,99967.44
2023-07-05T05:35:39.282Z,99968.47
2023-07-05T05:36:20.120Z,99963.84
2023-07-05T05:37:01.216Z,99961.94
2023-07-05T05:37:42.192Z,99963.63
2023-07-05T05:38:27.298Z,99953.03
2023-07-05T05:39:07.125Z,99957.69
2023-07-05T05:39:47.167Z,99961.50
2023-07-05T05:40:27.133Z,99963.19
2023-07-05T05:41:14.189Z,99963.22
2023-07-05T05:41:55.160Z,99951.34
2023-07-05T05:42:37.271Z,99966.13
2023-07-05T05:43:18.259Z,99959.16
2023-07-05T05:43:58.248Z,99958.94
2023-07-05T05:44:38.103Z,99964.03
2023-07-05T05:45:19.209Z,99952.41
2023-07-05T05:46:00.145Z,99954.72
2023-07-05T05:46:40.384Z,99951.13
2023-07-05T05:47:20.130Z,99959.56
2023-07-05T05:48:00.261Z,99954.50
2023-07-05T05:48:40.164Z,99959.16
2023-07-05T05:49:20.211Z,99959.78
2023-07-05T05:50:01.189Z,99955.59
2023-07-05T05:50:41.214Z,99960.63
2023-07-05T05:51:22.189Z,99957.28
2023-07-05T05:52:02.601Z,99943.50
2023-07-05T05:52:44.103Z,99953.44
2023-07-05T05:53:25.401Z,99958.09
2023-07-05T05:54:06.864Z,99964.88
2023-07-05T05:54:47.212Z,99950.91
2023-07-05T05:55:28.144Z,99932.28
2023-07-05T05:56:08.283Z,99952.59
2023-07-05T05:56:48.089Z,99961.06
2023-07-05T05:57:28.227Z,99954.69
2023-07-05T05:58:09.105Z,99958.47
2023-07-05T05:58:49.252Z,99947.91
2023-07-05T05:59:29.152Z,99941.97
2023-07-05T06:00:10.996Z,99959.59
2023-07-05T06:00:51.088Z,99965.25
2023-07-05T06:02:03.299Z,99955.28
2023-07-05T06:02:45.163Z,99946.56
2023-07-05T06:03:25.321Z,99947.63
2023-07-05T06:04:06.274Z,99962.59
2023-07-05T06:04:47.101Z,99957.94
2023-07-05T06:05:21.205Z,99954.53
2023-07-05T06:06:08.091Z,99951.78
2023-07-05T06:06:42.416Z,99951.56
2023-07-05T06:07:29.110Z,99950.91
2023-07-05T06:08:03.262Z,99949.00
2023-07-05T06:08:50.371Z,99948.16
2023-07-05T06:09:25.642Z,99950.09
2023-07-05T06:10:06.117Z,99943.09
2023-07-05T06:10:47.984Z,99959.19
2023-07-05T06:11:28.085Z,99946.88
2023-07-05T06:12:08.186Z,99958.75
2023-07-05T06:12:49.103Z,99946.66
2023-07-05T06:13:29.268Z,99951.38
2023-07-05T06:14:10.112Z,99951.53
2023-07-05T06:14:51.284Z,99952.38
2023-07-05T06:15:31.136Z,99945.63
2023-07-05T06:16:15.121Z,99962.13
2023-07-05T06:16:55.142Z,99951.94
2023-07-05T06:17:35.272Z,99947.25
2023-07-05T06:18:15.123Z,99960.31
2023-07-05T06:18:56.231Z,99950.13
2023-07-05T06:19:36.108Z,99946.69
2023-07-05T06:20:17.466Z,99948.69
2023-07-05T06:20:57.161Z,99928.09
2023-07-05T06:21:37.208Z,99935.88
2023-07-05T06:22:17.139Z,99943.03
2023-07-05T06:22:58.282Z,99945.97
2023-07-05T06:23:38.118Z,99943.00
2023-07-05T06:24:18.228Z,99935.63
2023-07-05T06:24:58.125Z,99939.84
2023-07-05T06:25:38.215Z,99937.69
2023-07-05T06:26:19.135Z,99940.25
2023-07-05T06:27:00.384Z,99927.88
2023-07-05T06:27:42.103Z,99937.69
2023-07-05T06:28:23.193Z,99932.53
2023-07-05T06:29:03.123Z,99935.94
2023-07-05T06:29:43.214Z,99935.53
2023-07-05T06:30:24.137Z,99934.47
2023-07-05T06:31:17.217Z,99930.44
2023-07-05T06:31:57.096Z,99930.38
2023-07-05T06:32:37.230Z,99916.41
2023-07-05T06:33:17.090Z,99926.19
2023-07-05T06:33:58.146Z,99928.50
2023-07-05T06:34:39.071Z,99932.06
2023-07-05T06:35:19.187Z,99918.25
2023-07-05T06:36:01.060Z,99918.19
2023-07-05T06:36:41.470Z,99927.41
2023-07-05T06:37:22.069Z,99932.84
2023-07-05T06:38:02.218Z,99925.22
2023-07-05T06:38:43.051Z,99926.97
2023-07-05T06:39:23.153Z,99933.72
2023-07-05T06:40:03.064Z,99915.75
2023-07-05T06:40:43.154Z,99922.00
2023-07-05T06:41:23.060Z,99910.75
2023-07-05T06:42:03.354Z,99915.97
2023-07-05T06:42:44.119Z,99922.72
2023-07-05T06:43:24.143Z,99915.03
2023-07-05T06:44:04.150Z,99919.78
2023-07-05T06:44:44.108Z,99913.03
2023-07-05T06:45:24.028Z,99920.16
2023-07-05T06:46:05.189Z,99925.63
2023-07-05T06:46:46.139Z,99907.00
2023-07-05T06:47:26.185Z,99917.53
2023-07-05T06:48:06.274Z,99914.13
2023-07-05T06:48:46.678Z,99917.91
2023-07-05T06:49:27.052Z,99916.94
2023-07-05T06:50:07.138Z,99898.34
2023-07-05T06:50:48.037Z,99912.13
2023-07-05T06:51:28.159Z,99908.50
2023-07-05T06:52:08.035Z,99918.56
2023-07-05T06:52:48.140Z,99913.56
2023-07-05T06:53:47.381Z,99923.69
2023-07-05T06:54:29.164Z,99928.22
2023-07-05T06:55:14.054Z,99918.16
2023-07-05T06:55:56.203Z,99913.03
2023-07-05T06:56:36.046Z,99922.53
2023-07-05T06:57:16.145Z,99917.84
2023-07-05T06:57:56.024Z,99916.97
2023-07-05T06:58:43.081Z,99925.38
2023-07-05T06:59:37.079Z,99922.69
2023-07-05T07:00:32.053Z,99905.75
2023-07-05T07:01:26.097Z,99907.13
2023-07-05T07:02:20.087Z,99919.22
2023-07-05T07:03:14.058Z,99917.22
2023-07-05T07:04:01.055Z,99922.16
2023-07-05T07:04:36.169Z,99913.41
2023-07-05T07:05:24.047Z,99908.19
2023-07-05T07:06:01.182Z,99916.28
2023-07-05T07:06:48.033Z,99912.78
2023-07-05T07:07:22.139Z,99898.81
2023-07-05T07:08:09.039Z,99912.34
2023-07-05T07:08:44.202Z,99916.94
2023-07-05T07:09:24.241Z,99901.03
2023-07-05T07:10:19.042Z,99899.13
2023-07-05T07:11:17.173Z,99915.50
2023-07-05T07:12:11.054Z,99903.88
2023-07-05T07:13:05.090Z,99916.66
2023-07-05T07:14:00.080Z,99909.81
2023-07-05T07:14:47.086Z,99916.13
2023-07-05T07:15:21.164Z,99898.22
2023-07-05T07:16:26.209Z,99903.19
2023-07-05T07:17:00.176Z,99891.84
2023-07-05T07:17:47.150Z,99901.38
2023-07-05T07:18:21.090Z,99897.66
2023-07-05T07:19:08.038Z,99899.97
2023-07-05T07:19:44.067Z,99900.06
2023-07-05T07:20:27.296Z,99884.94
2023-07-05T07:21:07.149Z,99886.50
2023-07-05T07:21:47.056Z,99894.09
2023-07-05T07:22:27.166Z,99896.25
2023-07-05T07:23:07.022Z,99895.50
2023-07-05T07:23:48.489Z,99881.31
2023-07-05T07:24:30.153Z,99887.34
2023-07-05T07:25:10.159Z,99884.97
2023-07-05T07:25:50.050Z,99887.34
2023-07-05T07:26:32.181Z,99868.22
2023-07-05T07:27:14.040Z,99883.63
2023-07-05T07:27:54.175Z,99884.59
2023-07-05T07:28:35.021Z,99881.13
2023-07-05T07:29:15.095Z,99868.84
2023-07-05T07:29:56.012Z,99865.75
2023-07-05T07:30:29.929Z,99881.41
2023-07-05T07:31:27.092Z,99881.28
2023-07-05T07:32:01.393Z,99875.38
2023-07-05T07:32:35.913Z,99874.53
2023-07-05T07:33:16.044Z,99882.63
2023-07-05T07:33:52.130Z,99882.97
2023-07-05T07:34:25.757Z,99868.31
2023-07-05T07:35:06.047Z,99885.44
2023-07-05T07:35:40.175Z,99866.00
2023-07-05T07:36:21.224Z,99878.06
2023-07-05T07:37:01.044Z,99875.28
2023-07-05T07:37:35.154Z,99869.28
2023-07-05T07:38:08.787Z,99879.66
2023-07-05T07:38:51.036Z,99875.34
2023-07-05T07:39:25.237Z,99878.09
2023-07-05T07:40:00.072Z,99859.31
2023-07-05T07:40:45.040Z,99861.72
2023-07-05T07:41:27.176Z,99858.88
2023-07-05T07:42:08.046Z,99864.50
2023-07-05T07:42:48.122Z,99855.00
2023-07-05T07:43:28.080Z,99860.75
2023-07-05T07:44:12.335Z,99870.88
2023-07-05T07:44:52.041Z,99855.34
2023-07-05T07:45:32.108Z,99866.41
2023-07-05T07:46:20.064Z,99864.16
2023-07-05T07:47:01.332Z,99852.38
2023-07-05T07:47:42.087Z,99860.16
2023-07-05T07:48:22.130Z,99858.09
2023-07-05T07:49:06.021Z,99852.34
2023-07-05T07:49:47.127Z,99848.38
2023-07-05T07:50:27.084Z,99854.50
2023-07-05T07:51:07.137Z,99848.97
2023-07-05T07:51:52.022Z,99857.88
2023-07-05T07:52:32.114Z,99854.03
2023-07-05T07:53:12.093Z,99846.31
2023-07-05T07:53:52.260Z,99853.50
2023-07-05T07:54:38.035Z,99845.34
2023-07-05T07:55:19.129Z,99849.91
2023-07-05T07:55:59.026Z,99844.97
2023-07-05T07:56:40.097Z,99842.78
2023-07-05T07:57:20.045Z,99841.47
2023-07-05T07:58:00.309Z,99832.22
2023-07-05T07:58:40.055Z,99847.75
2023-07-05T07:59:02.261Z,99832.97
2023-07-05T07:59:24.073Z,99845.69
2023-07-05T07:59:44.132Z,99845.19
2023-07-05T08:00:04.149Z,99839.31
2023-07-05T08:00:25.265Z,99840.75
2023-07-05T08:00:45.128Z,99834.63
2023-07-05T08:01:05.150Z,99833.78
2023-07-05T08:01:45.135Z,99835.94
2023-07-05T08:02:07.942Z,99841.56
2023-07-05T08:03:00.016Z,99843.38
2023-07-05T08:03:21.120Z,99828.38
2023-07-05T08:03:43.074Z,99834.75
2023-07-05T08:04:06.312Z,99836.78
2023-07-05T08:04:26.193Z,99832.09
2023-07-05T08:04:56.361Z,99840.28
2023-07-05T08:05:26.131Z,99841.69
2023-07-05T08:05:46.141Z,99836.28
2023-07-05T08:06:08.103Z,99831.09
2023-07-05T08:06:37.431Z,99833.88
2023-07-05T08:07:16.119Z,99836.63
2023-07-05T08:07:55.503Z,99839.41
2023-07-05T08:08:34.001Z,99834.22
2023-07-05T08:09:16.045Z,99845.75
2023-07-05T08:09:51.361Z,99823.47
2023-07-05T08:10:23.804Z,99837.75
2023-07-05T08:11:02.017Z,99847.63
2023-07-05T08:11:36.153Z,99836.44
2023-07-05T08:12:10.354Z,99829.13
2023-07-05T08:12:50.036Z,99836.34
2023-07-05T08:13:24.169Z,99839.69
2023-07-05T08:13:57.967Z,99838.38
2023-07-05T08:14:38.095Z,99834.25
2023-07-05T08:15:13.141Z,99842.94
2023-07-05T08:15:46.798Z,99837.13
2023-07-05T08:16:29.122Z,99829.19
2023-07-05T08:17:04.133Z,99842.28
2023-07-05T08:17:37.907Z,99843.28